Etusivu
METAR-TAF:

METAR-TAF

Lentoasemat :

Tupelo Regional Airport (C.D. Lemons Field)

Tupelo, Mississippi, Yhdysvallat

Leveyspiiri: 34-16-05N, Pituuspiiri: 088-46-12W, korkeus merenpinnasta: 106 m

Tämänhetkinen sää

Tämä raportti tehtiin 53 minuuttia sitten, kello 00.53 UTC
tyyntä
Lämpötila 14°C
Kosteus 67%
Ilmanpaine 1012 hPa
Näkyvyys: 16.1 km
selkeää

METAR: KTUP 190053Z 00000KT 10SM CLR 14/08 A2988 RMK AO2 SLP118 T01440078

Aika: 20:46 (01:46 UTC)

Sääennuste

Tämä raportti tehtiin 2 tuntia ja 26 minuuttia sitten, kello 23.20 UTC
Ennuste voimassa 19. päivästä klo 00 UTC - 19. päivään klo 24 UTC
Tuuli 5 kn idästä
Näkyvyys: 10 km
Hajanaisia pilviä 25000 ft:n korkeudessa
From 19. päivästä klo 1600 UTC
Tuuli 4 kn kaakosta
Näkyvyys: 10 km
Muutamia pilviä 3000 ft:n korkeudessa
Hajanaisia pilviä 20000 ft:n korkeudessa

TAF: KTUP 182320Z 1900/1924 08005KT P6SM SCT250 FM191600 14004KT P6SM FEW030 SCT200

Säähavainnot ja -ennusteet yli 4000 lentoasemalta (METAR- ja TAF-raportit).

Käytössä olevat sääasemat on merkitty karttaan keltaisilla ja punaisilla pisteillä.

Aseta hiiri pisteen päälle nähdäksesi sääaseman nimen.

Klikkaa sitten nähdäksesi säähavainnot ja -ennusteet.

Kartan vaihtaminen: klikkaa mustalla rastilla varustettuja vihreitä pisteitä, niin voit zoomata sisään; viivalla varustettua vihreää pistettä, niin voit zoomata ulos tai vihreitä nuolia, niin pääset viereisille kartoille.


METAR-TAF: